createdAt,value
2018-04-10T00:00:40.468Z,97335
2018-04-10T00:03:12.587Z,97322
2018-04-10T00:05:44.788Z,97325
2018-04-10T00:08:17.069Z,97324
2018-04-10T00:10:49.308Z,97321
2018-04-10T00:13:21.547Z,97320
2018-04-10T00:15:53.787Z,97326
2018-04-10T00:18:26.088Z,97329
2018-04-10T00:20:58.347Z,97333
2018-04-10T00:23:30.570Z,97334
2018-04-10T00:26:03.261Z,97331
2018-04-10T00:28:35.827Z,97321
2018-04-10T00:31:08.067Z,97319
2018-04-10T00:33:40.267Z,97309
2018-04-10T00:36:12.467Z,97313
2018-04-10T00:38:44.646Z,97309
2018-04-10T00:41:16.826Z,97316
2018-04-10T00:43:49.127Z,97310
2018-04-10T00:46:21.346Z,97307
2018-04-10T00:48:53.690Z,97303
2018-04-10T00:51:25.926Z,97301
2018-04-10T00:53:58.214Z,97300
2018-04-10T00:56:30.546Z,97296
2018-04-10T00:59:02.866Z,97298
2018-04-10T01:01:35.127Z,97289
2018-04-10T01:04:07.390Z,97293
2018-04-10T01:06:39.814Z,97290
2018-04-10T01:09:12.774Z,97280
2018-04-10T01:11:44.967Z,97283
2018-04-10T01:14:17.267Z,97278
2018-04-10T01:16:49.427Z,97281
2018-04-10T01:19:21.607Z,97274
2018-04-10T01:21:54.586Z,97263
2018-04-10T01:24:27.707Z,97273
2018-04-10T01:27:00.027Z,97268
2018-04-10T01:29:32.386Z,97266
2018-04-10T01:32:05.366Z,97263
2018-04-10T01:34:37.666Z,97261
2018-04-10T01:37:09.906Z,97263
2018-04-10T01:39:42.809Z,97256
2018-04-10T01:42:15.047Z,97258
2018-04-10T01:44:47.267Z,97247
2018-04-10T01:47:19.386Z,97254
2018-04-10T01:49:51.587Z,97244
2018-04-10T01:52:23.746Z,97236
2018-04-10T01:54:55.907Z,97244
2018-04-10T01:57:28.007Z,97255
2018-04-10T02:00:01.186Z,97254
2018-04-10T02:02:33.446Z,97244
2018-04-10T02:05:05.827Z,97253
2018-04-10T02:07:38.087Z,97252
2018-04-10T02:10:28.587Z,97257
2018-04-10T02:13:01.095Z,97247
2018-04-10T02:15:33.667Z,97247
2018-04-10T02:18:06.906Z,97246
2018-04-10T02:20:54.507Z,97241
2018-04-10T02:23:26.808Z,97255
2018-04-10T02:25:59.307Z,97252
2018-04-10T02:29:17.288Z,97239
2018-04-10T02:31:49.823Z,97241
2018-04-10T02:34:17.110Z,97231
2018-04-10T02:36:49.347Z,97228
2018-04-10T02:39:22.347Z,97228
2018-04-10T02:41:59.535Z,97229
2018-04-10T02:44:31.928Z,97228
2018-04-10T02:47:04.267Z,97225
2018-04-10T02:49:36.668Z,97225
2018-04-10T02:52:09.022Z,97228
2018-04-10T02:54:41.349Z,97236
2018-04-10T02:57:13.736Z,97230
2018-04-10T02:59:46.068Z,97225
2018-04-10T03:02:19.188Z,97227
2018-04-10T03:04:51.588Z,97226
2018-04-10T03:07:25.668Z,97225
2018-04-10T03:09:58.068Z,97215
2018-04-10T03:12:30.508Z,97223
2018-04-10T03:15:26.648Z,97213
2018-04-10T03:17:59.068Z,97213
2018-04-10T03:20:45.371Z,97216
2018-04-10T03:23:18.168Z,97220
2018-04-10T03:25:59.628Z,97210
2018-04-10T03:28:32.056Z,97214
2018-04-10T03:31:04.468Z,97213
2018-04-10T03:33:36.908Z,97213
2018-04-10T03:36:09.188Z,97213
2018-04-10T03:38:41.508Z,97202
2018-04-10T03:41:13.868Z,97211
2018-04-10T03:43:46.308Z,97216
2018-04-10T03:46:18.708Z,97214
2018-04-10T03:48:51.028Z,97223
2018-04-10T03:51:23.348Z,97215
2018-04-10T03:53:55.588Z,97208
2018-04-10T03:56:28.548Z,97209
2018-04-10T03:59:00.808Z,97205
2018-04-10T04:01:33.068Z,97200
2018-04-10T04:04:05.348Z,97194
2018-04-10T04:06:37.628Z,97188
2018-04-10T04:09:10.062Z,97197
2018-04-10T04:11:42.296Z,97197
2018-04-10T04:14:14.616Z,97193
2018-04-10T04:17:04.908Z,97198
2018-04-10T04:19:55.208Z,97198
2018-04-10T04:22:38.552Z,97199
2018-04-10T04:25:10.867Z,97201
2018-04-10T04:27:43.108Z,97202
2018-04-10T04:30:16.088Z,97210
2018-04-10T04:32:49.048Z,97209
2018-04-10T04:35:16.668Z,97212
2018-04-10T04:38:07.308Z,97207
2018-04-10T04:40:39.608Z,97209
2018-04-10T04:43:11.927Z,97204
2018-04-10T04:45:44.222Z,97208
2018-04-10T04:48:16.507Z,97208
2018-04-10T04:50:48.887Z,97203
2018-04-10T04:53:21.109Z,97208
2018-04-10T04:55:53.387Z,97209
2018-04-10T04:58:25.609Z,97211
2018-04-10T05:00:57.907Z,97208
2018-04-10T05:03:30.088Z,97212
2018-04-10T05:06:02.427Z,97219
2018-04-10T05:08:34.628Z,97220
2018-04-10T05:11:06.807Z,97215
2018-04-10T05:13:39.095Z,97216
2018-04-10T05:16:12.167Z,97214
2018-04-10T05:18:44.507Z,97226
2018-04-10T05:21:16.788Z,97220
2018-04-10T05:23:49.767Z,97227
2018-04-10T05:26:22.107Z,97229
2018-04-10T05:28:54.307Z,97225
2018-04-10T05:31:27.307Z,97218
2018-04-10T05:33:59.507Z,97220
2018-04-10T05:36:31.867Z,97218
2018-04-10T05:39:05.127Z,97215
2018-04-10T05:41:43.527Z,97214
2018-04-10T05:44:15.747Z,97216
2018-04-10T05:46:48.708Z,97225
2018-04-10T05:49:20.947Z,97222
2018-04-10T05:51:53.307Z,97225
2018-04-10T05:54:26.247Z,97226
2018-04-10T05:56:59.289Z,97226
2018-04-10T05:59:31.474Z,97222
2018-04-10T06:02:03.747Z,97234
2018-04-10T06:04:36.007Z,97229
2018-04-10T06:07:08.387Z,97240
2018-04-10T06:09:40.628Z,97248
2018-04-10T06:12:12.950Z,97241
2018-04-10T06:14:45.187Z,97247
2018-04-10T06:17:17.527Z,97247
2018-04-10T06:19:49.747Z,97246
2018-04-10T06:22:22.787Z,97249
2018-04-10T06:24:55.027Z,97248
2018-04-10T06:27:27.309Z,97249
2018-04-10T06:29:59.789Z,97253
2018-04-10T06:32:32.091Z,97249
2018-04-10T06:35:04.328Z,97256
2018-04-10T06:37:36.628Z,97252
2018-04-10T06:40:08.909Z,97254
2018-04-10T06:42:41.988Z,97253
2018-04-10T06:45:14.249Z,97253
2018-04-10T06:47:46.509Z,97254
2018-04-10T06:50:18.788Z,97257
2018-04-10T06:52:51.049Z,97255
2018-04-10T06:55:23.188Z,97253
2018-04-10T06:57:55.373Z,97246
2018-04-10T07:00:27.588Z,97242
2018-04-10T07:02:59.768Z,97238
2018-04-10T07:05:32.029Z,97243
2018-04-10T07:08:04.308Z,97254
2018-04-10T07:10:36.534Z,97255
2018-04-10T07:13:08.788Z,97252
2018-04-10T07:15:41.052Z,97260
2018-04-10T07:18:13.367Z,97262
2018-04-10T07:20:45.587Z,97262
2018-04-10T07:23:17.828Z,97261
2018-04-10T07:25:50.727Z,97262
2018-04-10T07:28:22.907Z,97260
2018-04-10T07:30:55.068Z,97259
2018-04-10T07:33:27.268Z,97254
2018-04-10T07:36:00.228Z,97257
2018-04-10T07:38:32.648Z,97254
2018-04-10T07:41:04.988Z,97255
2018-04-10T07:43:37.256Z,97252
2018-04-10T07:46:09.533Z,97257
2018-04-10T07:48:41.828Z,97255
2018-04-10T07:51:14.168Z,97263
2018-04-10T07:53:46.487Z,97255
2018-04-10T07:56:19.027Z,97269
2018-04-10T07:59:01.667Z,97265
2018-04-10T08:01:34.567Z,97265
2018-04-10T08:04:06.827Z,97267
2018-04-10T08:06:38.967Z,97271
2018-04-10T08:09:11.188Z,97273
2018-04-10T08:11:43.423Z,97281
2018-04-10T08:14:15.751Z,97280
2018-04-10T08:16:47.988Z,97289
2018-04-10T08:19:20.309Z,97281
2018-04-10T08:21:52.696Z,97285
2018-04-10T08:24:24.967Z,97286
2018-04-10T08:26:57.229Z,97278
2018-04-10T08:29:29.546Z,97272
2018-04-10T08:32:01.748Z,97283
2018-04-10T08:34:33.991Z,97284
2018-04-10T08:37:06.215Z,97279
2018-04-10T08:39:39.146Z,97291
2018-04-10T08:42:11.447Z,97284
2018-04-10T08:44:43.746Z,97300
2018-04-10T08:47:15.926Z,97309
2018-04-10T08:49:48.945Z,97308
2018-04-10T08:52:21.185Z,97299
2018-04-10T08:54:53.493Z,97312
2018-04-10T08:57:25.706Z,97307
2018-04-10T08:59:57.925Z,97309
2018-04-10T09:02:30.161Z,97313
2018-04-10T09:05:02.466Z,97308
2018-04-10T09:07:34.586Z,97318
2018-04-10T09:10:06.781Z,97316
2018-04-10T09:12:38.987Z,97316
2018-04-10T09:15:11.926Z,97324
2018-04-10T09:17:45.094Z,97310
2018-04-10T09:20:34.666Z,97320
2018-04-10T09:23:07.046Z,97315
2018-04-10T09:25:39.306Z,97326
2018-04-10T09:28:11.573Z,97327
2018-04-10T09:30:43.926Z,97325
2018-04-10T09:33:16.246Z,97316
2018-04-10T09:35:48.466Z,97319
2018-04-10T09:38:20.666Z,97315
2018-04-10T09:40:52.866Z,97318
2018-04-10T09:43:25.047Z,97318
2018-04-10T09:45:57.307Z,97316
2018-04-10T09:48:29.528Z,97314
2018-04-10T09:51:01.827Z,97317
2018-04-10T09:53:34.031Z,97315
2018-04-10T09:56:06.296Z,97315
2018-04-10T09:58:39.336Z,97312
2018-04-10T10:01:11.588Z,97310
2018-04-10T10:03:43.768Z,97307
2018-04-10T10:06:16.088Z,97306
2018-04-10T10:08:48.488Z,97296
2018-04-10T10:11:20.708Z,97308
2018-04-10T10:13:52.868Z,97304
2018-04-10T10:16:25.108Z,97308
2018-04-10T10:18:57.364Z,97300
2018-04-10T10:21:29.628Z,97302
2018-04-10T10:24:01.989Z,97300
2018-04-10T10:26:34.968Z,97312
2018-04-10T10:29:08.168Z,97300
2018-04-10T10:31:40.388Z,97305
2018-04-10T10:34:12.552Z,97297
2018-04-10T10:36:44.807Z,97296
2018-04-10T10:39:16.988Z,97293
2018-04-10T10:41:49.927Z,97292
2018-04-10T10:44:22.188Z,97292
2018-04-10T10:46:55.127Z,97288
2018-04-10T10:49:27.367Z,97283
2018-04-10T10:52:00.414Z,97287
2018-04-10T10:54:32.728Z,97285
2018-04-10T10:57:04.988Z,97283
2018-04-10T10:59:37.208Z,97286
2018-04-10T11:02:10.220Z,97286
2018-04-10T11:04:42.456Z,97285
2018-04-10T11:07:14.648Z,97274
2018-04-10T11:09:46.868Z,97278
2018-04-10T11:12:19.028Z,97267
2018-04-10T11:14:51.211Z,97275
2018-04-10T11:17:23.368Z,97270
2018-04-10T11:19:55.668Z,97264
2018-04-10T11:22:27.867Z,97260
2018-04-10T11:25:00.248Z,97265
2018-04-10T11:27:32.569Z,97267
2018-04-10T11:30:04.937Z,97260
2018-04-10T11:32:37.189Z,97271
2018-04-10T11:35:09.429Z,97267
2018-04-10T11:37:41.658Z,97265
2018-04-10T11:40:13.981Z,97271
2018-04-10T11:42:46.150Z,97265
2018-04-10T11:45:18.470Z,97264
2018-04-10T11:47:50.550Z,97259
2018-04-10T11:50:22.874Z,97266
2018-04-10T11:52:55.050Z,97262
2018-04-10T11:55:27.370Z,97257
2018-04-10T11:57:59.630Z,97266
2018-04-10T12:00:31.955Z,97253
2018-04-10T12:03:04.170Z,97262
2018-04-10T12:05:36.409Z,97263
2018-04-10T12:08:09.417Z,97263
2018-04-10T12:10:41.709Z,97271
2018-04-10T12:13:13.930Z,97265
2018-04-10T12:15:46.230Z,97261
2018-04-10T12:18:18.409Z,97266
2018-04-10T12:20:50.809Z,97268
2018-04-10T12:23:23.849Z,97267
2018-04-10T12:25:56.229Z,97264
2018-04-10T12:28:29.211Z,97267
2018-04-10T12:31:01.577Z,97260
2018-04-10T12:33:33.871Z,97260
2018-04-10T12:36:06.149Z,97262
2018-04-10T12:38:39.109Z,97259
2018-04-10T12:41:12.150Z,97264
2018-04-10T12:43:44.488Z,97255
2018-04-10T12:46:16.708Z,97252
2018-04-10T12:48:49.029Z,97257
2018-04-10T12:51:21.309Z,97252
2018-04-10T12:53:53.608Z,97255
2018-04-10T12:56:25.828Z,97254
2018-04-10T12:58:58.216Z,97248
2018-04-10T13:01:30.616Z,97240
2018-04-10T13:04:24.891Z,97234
2018-04-10T13:06:57.208Z,97232
2018-04-10T13:09:29.448Z,97231
2018-04-10T13:12:01.609Z,97226
2018-04-10T13:14:33.830Z,97231
2018-04-10T13:17:05.988Z,97226
2018-04-10T13:19:38.308Z,97228
2018-04-10T13:22:10.616Z,97228
2018-04-10T13:24:42.948Z,97224
2018-04-10T13:27:15.397Z,97226
2018-04-10T13:29:47.628Z,97224
2018-04-10T13:32:20.647Z,97215
2018-04-10T13:34:52.967Z,97218
2018-04-10T13:37:26.067Z,97216
2018-04-10T13:39:58.387Z,97211
2018-04-10T13:42:30.648Z,97214
2018-04-10T14:21:28.148Z,97202
2018-04-10T14:24:00.217Z,97187
2018-04-10T14:26:32.389Z,97193
2018-04-10T14:29:05.429Z,97197
2018-04-10T14:31:37.769Z,97201
2018-04-10T14:34:10.789Z,97198
2018-04-10T14:36:43.050Z,97194
2018-04-10T14:39:15.369Z,97193
2018-04-10T14:41:47.590Z,97188
2018-04-10T14:44:20.829Z,97190
2018-04-10T14:46:53.139Z,97194
2018-04-10T14:49:25.410Z,97188
2018-04-10T14:51:57.822Z,97181
2018-04-10T14:54:30.829Z,97179
2018-04-10T14:57:03.129Z,97180
2018-04-10T14:59:35.401Z,97189
2018-04-10T15:02:08.496Z,97180
2018-04-10T15:04:40.868Z,97178
2018-04-10T15:07:13.187Z,97183
2018-04-10T15:09:45.427Z,97187
2018-04-10T15:12:17.603Z,97176
2018-04-10T15:14:49.989Z,97175
2018-04-10T15:17:22.268Z,97176
2018-04-10T15:19:54.468Z,97169
2018-04-10T15:22:26.870Z,97166
2018-04-10T15:24:59.868Z,97171
2018-04-10T15:27:32.231Z,97178
2018-04-10T15:30:05.256Z,97176
2018-04-10T15:32:37.590Z,97168
2018-04-10T15:35:09.848Z,97168
2018-04-10T15:37:42.139Z,97177
2018-04-10T15:40:14.389Z,97173
2018-04-10T15:42:46.708Z,97178
2018-04-10T15:45:19.028Z,97183
2018-04-10T15:47:51.347Z,97185
2018-04-10T15:50:23.547Z,97186
2018-04-10T15:52:55.827Z,97190
2018-04-10T15:55:28.721Z,97194
2018-04-10T15:58:01.022Z,97189
2018-04-10T16:00:33.390Z,97183
2018-04-10T16:03:05.628Z,97186
2018-04-10T16:05:37.907Z,97186
2018-04-10T16:08:10.248Z,97189
2018-04-10T16:10:42.548Z,97191
2018-04-10T16:13:15.576Z,97185
2018-04-10T16:15:47.928Z,97184
2018-04-10T16:18:20.228Z,97180
2018-04-10T16:20:52.569Z,97192
2018-04-10T16:23:24.828Z,97195
2018-04-10T16:25:57.048Z,97195
2018-04-10T16:28:29.388Z,97190
2018-04-10T16:31:01.736Z,97195
2018-04-10T16:33:33.987Z,97201
2018-04-10T16:36:06.329Z,97195
2018-04-10T16:38:38.568Z,97193
2018-04-10T16:41:10.788Z,97191
2018-04-10T16:43:43.108Z,97190
2018-04-10T16:46:15.428Z,97184
2018-04-10T16:48:47.669Z,97186
2018-04-10T16:51:20.008Z,97185
2018-04-10T16:53:52.328Z,97189
2018-04-10T16:56:24.628Z,97196
2018-04-10T16:58:57.107Z,97200
2018-04-10T17:01:29.496Z,97207
2018-04-10T17:04:01.827Z,97202
2018-04-10T17:06:34.068Z,97203
2018-04-10T17:09:07.269Z,97214
2018-04-10T17:11:39.528Z,97211
2018-04-10T17:14:11.828Z,97208
2018-04-10T17:16:44.868Z,97205
2018-04-10T17:19:17.108Z,97203
2018-04-10T17:21:49.428Z,97206
2018-04-10T17:24:21.828Z,97203
2018-04-10T17:26:54.829Z,97205
2018-04-10T17:29:27.127Z,97205
2018-04-10T17:31:59.469Z,97202
2018-04-10T17:34:31.676Z,97199
2018-04-10T17:37:04.007Z,97204
2018-04-10T17:39:36.308Z,97205
2018-04-10T17:42:08.547Z,97200
2018-04-10T17:44:41.509Z,97203
2018-04-10T17:47:13.748Z,97203
2018-04-10T17:49:46.068Z,97205
2018-04-10T17:52:18.348Z,97216
2018-04-10T17:54:50.709Z,97212
2018-04-10T17:57:23.027Z,97218
2018-04-10T17:59:55.310Z,97213
2018-04-10T18:02:27.636Z,97225
2018-04-10T18:04:59.928Z,97223
2018-04-10T18:07:32.267Z,97214
2018-04-10T18:10:04.505Z,97222
2018-04-10T18:12:36.786Z,97220
2018-04-10T18:15:09.048Z,97226
2018-04-10T18:17:41.207Z,97223
2018-04-10T18:20:13.288Z,97228
2018-04-10T18:22:45.336Z,97229
2018-04-10T18:25:17.538Z,97225
2018-04-10T18:27:49.480Z,97222
2018-04-10T18:30:21.315Z,97227
2018-04-10T18:32:53.452Z,97235
2018-04-10T18:35:25.690Z,97235
2018-04-10T18:37:58.415Z,97245
2018-04-10T18:40:30.731Z,97243
2018-04-10T18:43:03.108Z,97252
2018-04-10T18:45:35.112Z,97255
2018-04-10T18:48:07.250Z,97263
2018-04-10T18:50:39.422Z,97264
2018-04-10T18:53:11.501Z,97261
2018-04-10T18:55:44.279Z,97260
2018-04-10T18:58:17.501Z,97266
2018-04-10T19:00:49.848Z,97260
2018-04-10T19:03:22.056Z,97264
2018-04-10T19:05:54.056Z,97257
2018-04-10T19:08:27.129Z,97260
2018-04-10T19:10:59.154Z,97258
2018-04-10T19:13:31.185Z,97262
2018-04-10T19:16:03.308Z,97267
2018-04-10T19:18:35.506Z,97271
2018-04-10T19:21:07.444Z,97273
2018-04-10T19:23:40.027Z,97272
2018-04-10T19:26:12.228Z,97263
2018-04-10T19:28:44.407Z,97266
2018-04-10T19:31:16.647Z,97275
2018-04-10T19:33:49.295Z,97267
2018-04-10T19:36:21.389Z,97272
2018-04-10T19:38:53.381Z,97278
2018-04-10T19:41:25.507Z,97280
2018-04-10T19:43:57.547Z,97270
2018-04-10T19:46:29.827Z,97264
2018-04-10T19:49:02.807Z,97279
2018-04-10T19:51:34.946Z,97283
2018-04-10T19:54:07.347Z,97287
2018-04-10T19:56:39.358Z,97284
2018-04-10T19:59:11.655Z,97282
2018-04-10T20:01:43.838Z,97287
2018-04-10T20:04:16.087Z,97286
2018-04-10T20:06:48.387Z,97295
2018-04-10T20:09:20.647Z,97295
2018-04-10T20:11:52.907Z,97287
2018-04-10T20:14:25.175Z,97291
2018-04-10T20:16:57.507Z,97283
2018-04-10T20:19:29.827Z,97285
2018-04-10T20:22:02.867Z,97286
2018-04-10T20:24:35.107Z,97288
2018-04-10T20:27:07.393Z,97288
2018-04-10T20:29:39.827Z,97292
2018-04-10T20:32:12.068Z,97293
2018-04-10T20:34:45.736Z,97289
2018-04-10T20:37:18.868Z,97300
2018-04-10T20:39:51.132Z,97297
2018-04-10T20:42:23.427Z,97290
2018-04-10T20:44:55.767Z,97287
2018-04-10T20:47:28.135Z,97289
2018-04-10T20:50:00.487Z,97291
2018-04-10T20:52:32.775Z,97305
2018-04-10T20:55:05.108Z,97304
2018-04-10T20:57:37.447Z,97303
2018-04-10T21:00:09.707Z,97309
2018-04-10T21:02:41.989Z,97321
2018-04-10T21:05:14.227Z,97323
2018-04-10T21:07:46.408Z,97325
2018-04-10T21:10:18.708Z,97340
2018-04-10T21:12:50.953Z,97329
2018-04-10T21:15:23.988Z,97335
2018-04-10T21:17:57.028Z,97331
2018-04-10T21:20:29.311Z,97326
2018-04-10T21:23:01.584Z,97328
2018-04-10T21:25:33.872Z,97324
2018-04-10T21:28:06.169Z,97339
2018-04-10T21:30:38.508Z,97325
2018-04-10T21:33:10.648Z,97339
2018-04-10T21:35:42.888Z,97334
2018-04-10T21:38:15.189Z,97336
2018-04-10T21:40:47.449Z,97330
2018-04-10T21:43:25.608Z,97331
2018-04-10T21:45:58.548Z,97340
2018-04-10T21:48:30.869Z,97339
2018-04-10T21:51:03.689Z,97333
2018-04-10T21:53:37.048Z,97342
2018-04-10T21:56:09.388Z,97337
2018-04-10T21:58:41.668Z,97341
2018-04-10T22:01:14.668Z,97344
2018-04-10T22:03:47.669Z,97340
2018-04-10T22:06:19.989Z,97347
2018-04-10T22:08:52.968Z,97342
2018-04-10T22:11:25.188Z,97347
2018-04-10T22:13:57.349Z,97345
2018-04-10T22:16:29.508Z,97344
2018-04-10T22:19:02.428Z,97348
2018-04-10T22:21:34.648Z,97344
2018-04-10T22:24:06.889Z,97347
2018-04-10T22:26:39.208Z,97340
2018-04-10T22:29:11.494Z,97346
2018-04-10T22:31:43.847Z,97346
2018-04-10T22:34:16.077Z,97352
2018-04-10T22:36:49.097Z,97352
2018-04-10T22:39:21.320Z,97356
2018-04-10T22:41:53.625Z,97360
2018-04-10T22:44:25.817Z,97356
2018-04-10T22:46:58.037Z,97355
2018-04-10T22:49:30.278Z,97354
2018-04-10T22:52:02.439Z,97358
2018-04-10T22:54:36.718Z,97369
2018-04-10T22:57:08.997Z,97373
2018-04-10T22:59:41.277Z,97379
2018-04-10T23:02:13.663Z,97382
2018-04-10T23:04:45.963Z,97382
2018-04-10T23:07:18.227Z,97379
2018-04-10T23:09:50.519Z,97395
2018-04-10T23:12:23.575Z,97397
2018-04-10T23:14:55.967Z,97397
2018-04-10T23:17:28.223Z,97395
2018-04-10T23:20:01.227Z,97393
2018-04-10T23:22:33.509Z,97394
2018-04-10T23:25:05.755Z,97401
2018-04-10T23:27:38.032Z,97410
2018-04-10T23:30:10.153Z,97402
2018-04-10T23:32:42.395Z,97400
2018-04-10T23:35:14.737Z,97402
2018-04-10T23:37:46.998Z,97396
2018-04-10T23:40:19.323Z,97402
2018-04-10T23:42:52.402Z,97403
2018-04-10T23:45:24.726Z,97409
2018-04-10T23:47:57.381Z,97410
2018-04-10T23:50:29.909Z,97410
2018-04-10T23:53:02.182Z,97407
2018-04-10T23:55:35.140Z,97404
2018-04-10T23:58:08.161Z,97411
